Time;durP1;ratioP1;P1;durP2;ratioP2;P2;SDS_P1;SDS_P2;PMS_P1;PMS_P2;Temp;Humidity;BMP_temperature;BMP_pressure;BME280_temperature;BME280_humidity;BME280_pressure;Samples;Min_cycle;Max_cycle;Signal;HPM_P1;HPM_P2
2022/10/26 00:00:39;;;;;;;4.88;0.80;;;;;;;12.93;100.00;100059.78;5036057;28;20091;-52
2022/10/26 00:03:05;;;;;;;1.20;0.47;;;;;;;12.86;100.00;100067.84;5031624;28;20116;-51
2022/10/26 00:05:33;;;;;;;5.00;0.55;;;;;;;12.85;100.00;100056.34;5041111;28;20044;-50
2022/10/26 00:07:58;;;;;;;3.60;0.30;;;;;;;12.83;100.00;100055.78;5029846;28;20108;-53
2022/10/26 00:10:24;;;;;;;1.67;0.52;;;;;;;12.85;100.00;100053.69;5032449;28;20117;-50
2022/10/26 00:12:50;;;;;;;2.88;0.73;;;;;;;12.91;100.00;100044.03;5031229;28;20037;-53
2022/10/26 00:15:17;;;;;;;1.50;0.60;;;;;;;12.92;100.00;100042.19;5032172;28;20060;-52
2022/10/26 00:17:42;;;;;;;6.35;0.43;;;;;;;12.93;100.00;100036.63;5029219;28;20086;-53
2022/10/26 00:20:08;;;;;;;4.47;0.73;;;;;;;12.91;100.00;100036.06;5030606;28;20429;-56
2022/10/26 00:22:33;;;;;;;3.45;0.98;;;;;;;12.91;100.00;100041.38;5037704;28;20041;-55
2022/10/26 00:24:58;;;;;;;4.85;0.38;;;;;;;12.91;100.00;100035.22;5039464;28;20049;-51
2022/10/26 00:27:24;;;;;;;3.20;0.70;;;;;;;12.92;100.00;100031.56;5032245;28;20111;-53
2022/10/26 00:29:49;;;;;;;1.95;0.20;;;;;;;12.96;100.00;100022.09;5035113;28;20386;-56
2022/10/26 00:32:14;;;;;;;3.00;1.02;;;;;;;12.94;100.00;100024.19;5031192;28;20052;-57
2022/10/26 00:34:40;;;;;;;6.45;0.85;;;;;;;12.98;100.00;100020.84;5035853;28;20025;-57
2022/10/26 00:37:05;;;;;;;2.15;0.38;;;;;;;12.98;100.00;100025.34;5030945;28;20108;-56
2022/10/26 00:39:30;;;;;;;7.60;0.95;;;;;;;12.98;100.00;100020.84;5033654;28;20061;-56
2022/10/26 00:41:56;;;;;;;1.35;0.47;;;;;;;13.02;100.00;100015.91;5031914;28;20033;-55
2022/10/26 00:44:46;;;;;;;2.65;0.63;;;;;;;13.04;100.00;100012.00;5034050;28;20091;-51
2022/10/26 00:47:22;;;;;;;4.65;0.40;;;;;;;13.04;100.00;100009.34;5029183;28;20103;-53
2022/10/26 00:49:51;;;;;;;2.97;0.65;;;;;;;12.99;100.00;100014.50;5030651;28;20052;-52
2022/10/26 00:52:18;;;;;;;1.70;0.65;;;;;;;12.99;100.00;100011.03;5029649;28;20156;-51
2022/10/26 00:54:44;;;;;;;11.02;1.42;;;;;;;13.00;100.00;100004.66;5036667;28;20044;-53
2022/10/26 00:57:13;;;;;;;6.80;0.25;;;;;;;13.01;100.00;100003.63;5030366;28;20034;-51
2022/10/26 00:59:40;;;;;;;7.97;1.08;;;;;;;13.01;100.00;100003.63;5036850;28;20033;-52
2022/10/26 01:02:07;;;;;;;0.98;0.55;;;;;;;12.99;100.00;100001.19;5041732;28;20029;-57
2022/10/26 01:04:33;;;;;;;2.60;0.55;;;;;;;12.98;100.00;99998.75;5042454;28;20074;-54
2022/10/26 01:07:02;;;;;;;2.17;0.30;;;;;;;12.98;100.00;99994.22;5045096;28;20383;-53
2022/10/26 01:09:28;;;;;;;1.85;0.40;;;;;;;12.98;100.00;99996.06;5039440;28;20116;-57
2022/10/26 01:11:54;;;;;;;6.05;0.70;;;;;;;12.99;100.00;99995.06;5032720;28;20164;-55
2022/10/26 01:14:20;;;;;;;3.72;1.05;;;;;;;13.01;100.00;99991.16;5033602;28;20040;-56
2022/10/26 01:17:04;;;;;;;7.50;1.40;;;;;;;12.97;100.00;99991.81;5033408;28;20147;-56
2022/10/26 01:19:38;;;;;;;2.65;0.88;;;;;;;12.97;100.00;99991.81;5039666;28;20057;-56
2022/10/26 01:22:12;;;;;;;9.07;1.75;;;;;;;13.04;100.00;100000.53;5033514;28;20384;-55
2022/10/26 01:24:57;;;;;;;4.05;0.60;;;;;;;13.11;100.00;100006.59;5030919;28;20440;-54
2022/10/26 01:27:31;;;;;;;2.30;1.02;;;;;;;13.12;100.00;99997.59;5032609;28;20077;-57
2022/10/26 01:30:14;;;;;;;2.22;0.30;;;;;;;13.17;100.00;99997.75;5039496;28;20043;-56
2022/10/26 01:32:51;;;;;;;2.70;1.23;;;;;;;13.25;100.00;100005.44;5032251;28;20088;-57
2022/10/26 01:35:37;;;;;;;6.47;0.93;;;;;;;13.29;100.00;100001.38;5036884;28;20029;-58
2022/10/26 01:38:29;;;;;;;5.55;1.58;;;;;;;13.30;100.00;99995.00;5033312;28;20059;-57
2022/10/26 01:41:21;;;;;;;13.32;1.63;;;;;;;13.31;100.00;99993.13;5034250;28;20041;-56
2022/10/26 01:43:55;;;;;;;4.25;0.45;;;;;;;13.30;100.00;100000.31;5031626;28;20540;-55
2022/10/26 01:46:23;;;;;;;6.93;0.82;;;;;;;13.33;100.00;100000.91;5038506;28;20553;-51
2022/10/26 01:48:53;;;;;;;4.28;1.73;;;;;;;13.36;100.00;99995.94;5034164;28;20064;-57
2022/10/26 01:51:19;;;;;;;3.47;0.60;;;;;;;13.37;100.00;100002.09;5038302;28;20122;-52
2022/10/26 01:53:45;;;;;;;5.50;0.63;;;;;;;13.40;100.00;99996.31;5030483;28;20026;-53
2022/10/26 01:56:18;;;;;;;4.15;0.85;;;;;;;13.46;100.00;99984.78;5028929;28;20025;-53
2022/10/26 01:58:52;;;;;;;1.42;0.50;;;;;;;13.48;100.00;99977.41;5034560;28;20060;-52
2022/10/26 02:01:41;;;;;;;6.03;0.60;;;;;;;13.49;100.00;99973.69;5033984;28;20083;-54
2022/10/26 02:04:15;;;;;;;1.70;0.40;;;;;;;13.49;100.00;99966.50;5031980;28;20115;-54
2022/10/26 02:07:15;;;;;;;6.05;0.20;;;;;;;13.49;100.00;99960.38;5041513;28;20021;-51
2022/10/26 02:10:04;;;;;;;3.47;0.30;;;;;;;13.48;100.00;99978.22;5029396;28;20033;-53
2022/10/26 02:12:54;;;;;;;4.53;1.00;;;;;;;13.46;100.00;99984.78;5034139;28;20103;-54
2022/10/26 02:15:39;;;;;;;3.88;0.20;;;;;;;13.46;100.00;99966.97;5029968;28;20114;-53
2022/10/26 02:18:42;;;;;;;5.82;0.35;;;;;;;13.48;100.00;99969.41;5034747;28;20025;-53
2022/10/26 02:21:15;;;;;;;9.10;2.28;;;;;;;13.50;100.00;99960.16;5036066;28;20498;-53
2022/10/26 02:23:42;;;;;;;4.70;1.17;;;;;;;13.49;100.00;99947.06;5039398;28;20108;-54
2022/10/26 02:26:11;;;;;;;5.78;1.33;;;;;;;13.44;100.00;99954.91;5038741;28;20033;-55
2022/10/26 02:28:41;;;;;;;3.95;0.45;;;;;;;13.38;100.00;99951.28;5038348;28;20136;-54
2022/10/26 02:31:08;;;;;;;2.83;0.30;;;;;;;13.34;100.00;99955.41;5043528;28;20025;-53
2022/10/26 02:33:39;;;;;;;4.28;1.60;;;;;;;13.31;100.00;99951.34;5032954;28;20123;-57
2022/10/26 02:36:07;;;;;;;4.27;0.53;;;;;;;13.31;100.00;99946.00;5038237;28;20026;-53
2022/10/26 02:38:36;;;;;;;4.43;0.50;;;;;;;13.39;100.00;99949.44;5045253;28;20314;-53
2022/10/26 02:41:03;;;;;;;4.65;0.82;;;;;;;13.43;100.00;99942.63;5033737;28;21088;-55
2022/10/26 02:43:32;;;;;;;4.93;0.75;;;;;;;13.41;100.00;99944.69;5048492;28;20119;-56
2022/10/26 02:46:04;;;;;;;5.15;1.13;;;;;;;13.39;100.00;99946.75;5041005;28;20513;-54
2022/10/26 02:48:30;;;;;;;6.57;0.43;;;;;;;13.36;100.00;99929.38;5041858;28;20033;-55
2022/10/26 02:51:12;;;;;;;4.60;0.65;;;;;;;13.32;100.00;99925.56;5034930;28;20029;-57
2022/10/26 02:54:02;;;;;;;2.38;0.68;;;;;;;13.29;100.00;99924.16;5048882;28;20017;-54
2022/10/26 02:56:43;;;;;;;6.45;0.65;;;;;;;13.38;100.00;99934.50;5036752;28;20558;-56
2022/10/26 02:59:13;;;;;;;3.05;0.82;;;;;;;13.46;100.00;99940.31;5038718;28;20160;-57
2022/10/26 03:01:40;;;;;;;3.65;0.52;;;;;;;13.52;100.00;99939.41;5046360;28;20087;-57
2022/10/26 03:04:05;;;;;;;7.85;1.33;;;;;;;13.56;100.00;99931.81;5030959;28;21656;-55
2022/10/26 03:06:30;;;;;;;3.40;1.27;;;;;;;13.57;100.00;99925.44;5043736;28;20116;-57
2022/10/26 03:08:56;;;;;;;4.25;2.35;;;;;;;13.57;100.00;99928.09;5033874;28;20033;-57
2022/10/26 03:11:21;;;;;;;5.82;1.40;;;;;;;13.57;100.00;99928.09;5045706;28;20032;-56
2022/10/26 03:13:47;;;;;;;3.17;0.60;;;;;;;13.61;100.00;99912.50;5044671;28;20070;-53
2022/10/26 03:16:12;;;;;;;16.25;1.05;;;;;;;13.62;100.00;99917.59;5042843;28;20032;-51
2022/10/26 03:18:37;;;;;;;4.15;0.30;;;;;;;13.65;100.00;99919.81;5037363;28;20157;-54
2022/10/26 03:21:03;;;;;;;3.97;1.10;;;;;;;13.71;100.00;99926.91;5028952;28;20056;-54
2022/10/26 03:23:28;;;;;;;7.35;1.05;;;;;;;13.72;100.00;99930.38;5039791;28;20116;-52
2022/10/26 03:25:57;;;;;;;8.05;0.90;;;;;;;13.77;100.00;99935.03;5040379;28;20095;-53
2022/10/26 03:28:23;;;;;;;9.60;1.58;;;;;;;13.78;100.00;99939.31;5032628;28;20173;-51
2022/10/26 03:30:48;;;;;;;5.90;1.55;;;;;;;13.78;100.00;99934.81;5042254;28;20032;-55
2022/10/26 03:33:13;;;;;;;6.32;1.00;;;;;;;13.81;100.00;99939.69;5044368;28;20029;-52
2022/10/26 03:35:39;;;;;;;6.70;0.82;;;;;;;13.84;100.00;99930.44;5034094;28;20037;-57
2022/10/26 03:38:04;;;;;;;8.02;1.23;;;;;;;13.82;100.00;99925.34;5035036;28;20057;-56
2022/10/26 03:40:30;;;;;;;5.80;1.23;;;;;;;13.84;100.00;99933.13;5039819;28;20044;-56
2022/10/26 03:42:55;;;;;;;8.05;0.98;;;;;;;13.83;100.00;99931.47;5039230;28;20029;-54
2022/10/26 03:45:20;;;;;;;5.20;0.55;;;;;;;13.85;100.00;99934.72;5033509;28;20030;-55
2022/10/26 03:47:47;;;;;;;8.10;0.85;;;;;;;13.86;100.00;99934.50;5035331;28;20200;-54
2022/10/26 03:50:16;;;;;;;5.53;0.40;;;;;;;13.89;100.00;99925.25;5048549;28;20035;-55
2022/10/26 03:52:42;;;;;;;3.42;0.45;;;;;;;13.89;100.00;99938.56;5032200;28;20026;-50
2022/10/26 03:55:08;;;;;;;3.72;0.40;;;;;;;13.91;100.00;99928.47;5037117;28;20267;-51
2022/10/26 03:57:34;;;;;;;4.30;1.33;;;;;;;13.93;100.00;99921.06;5037563;28;20068;-52
2022/10/26 03:59:59;;;;;;;1.85;0.93;;;;;;;13.95;100.00;99929.66;5040639;28;20057;-52
2022/10/26 04:02:24;;;;;;;4.63;0.30;;;;;;;13.95;100.00;99935.00;5040522;28;20031;-54
2022/10/26 04:04:50;;;;;;;6.05;0.98;;;;;;;13.95;100.00;99938.47;5038344;28;20048;-53
2022/10/26 04:07:15;;;;;;;3.95;0.93;;;;;;;13.95;100.00;99948.31;5038786;28;20023;-52
2022/10/26 04:09:40;;;;;;;2.30;0.85;;;;;;;13.90;100.00;99953.50;5040357;28;20492;-54
2022/10/26 04:12:06;;;;;;;3.35;0.50;;;;;;;13.86;100.00;99950.50;5041257;28;20108;-52
2022/10/26 04:14:31;;;;;;;8.45;0.40;;;;;;;13.85;100.00;99956.03;5041525;28;20441;-56
2022/10/26 04:16:57;;;;;;;3.72;0.50;;;;;;;13.83;100.00;99953.59;5036688;28;20079;-57
2022/10/26 04:19:22;;;;;;;7.25;1.38;;;;;;;13.81;100.00;99958.34;5041678;28;20065;-56
2022/10/26 04:21:50;;;;;;;9.48;1.08;;;;;;;13.80;100.00;99958.56;5038095;28;20033;-58
2022/10/26 04:24:15;;;;;;;4.53;0.52;;;;;;;13.74;100.00;99958.44;5029665;28;20458;-58
2022/10/26 04:26:41;;;;;;;6.68;0.70;;;;;;;13.73;100.00;99955.97;5035189;28;20044;-58
2022/10/26 04:29:06;;;;;;;2.35;0.30;;;;;;;13.74;100.00;99960.28;5035324;28;20039;-58
2022/10/26 04:31:32;;;;;;;1.42;0.85;;;;;;;13.77;100.00;99967.00;5035479;28;20505;-57
2022/10/26 04:33:58;;;;;;;5.82;0.88;;;;;;;13.76;100.00;99960.88;5040654;28;20102;-58
2022/10/26 04:36:23;;;;;;;5.40;1.05;;;;;;;13.82;100.00;99967.97;5037968;28;20506;-58
2022/10/26 04:38:48;;;;;;;2.88;0.57;;;;;;;13.86;100.00;99976.31;5038805;28;20108;-58
2022/10/26 04:41:14;;;;;;;4.47;0.70;;;;;;;13.86;100.00;99973.66;5035647;28;20492;-57
2022/10/26 04:43:40;;;;;;;4.28;0.38;;;;;;;13.83;100.00;99974.09;5038506;28;20052;-54
2022/10/26 04:46:05;;;;;;;2.05;0.22;;;;;;;13.81;100.00;99976.16;5049272;28;20574;-58
2022/10/26 04:48:30;;;;;;;4.38;2.15;;;;;;;13.71;100.00;99972.19;5043296;28;20036;-55
2022/10/26 04:50:59;;;;;;;5.03;0.85;;;;;;;13.58;100.00;99967.03;5040922;28;20437;-56
2022/10/26 04:53:25;;;;;;;2.88;0.98;;;;;;;13.46;100.00;99974.13;5048948;28;20031;-59
2022/10/26 04:55:58;;;;;;;4.45;0.77;;;;;;;13.35;100.00;99990.88;5038684;28;20029;-54
2022/10/26 04:58:24;;;;;;;4.75;0.80;;;;;;;13.32;100.00;99989.47;5046020;28;20040;-56
2022/10/26 05:00:49;;;;;;;8.32;1.63;;;;;;;13.40;100.00;99996.31;5040351;28;20659;-51
2022/10/26 05:03:15;;;;;;;3.67;0.35;;;;;;;13.48;100.00;99998.72;5039387;28;20481;-56
2022/10/26 05:05:40;;;;;;;2.65;0.40;;;;;;;13.59;100.00;100002.47;5049312;28;20044;-52
2022/10/26 05:08:05;;;;;;;2.05;0.45;;;;;;;13.64;100.00;100007.94;5048157;28;20053;-56
2022/10/26 05:10:31;;;;;;;3.85;0.35;;;;;;;13.70;100.00;100012.38;5049013;28;20071;-54
2022/10/26 05:12:59;;;;;;;3.05;0.93;;;;;;;13.70;100.00;100021.19;5045992;28;20024;-58
2022/10/26 05:15:25;;;;;;;2.00;0.30;;;;;;;13.63;100.00;100022.28;5048925;28;20037;-57
2022/10/26 05:18:04;;;;;;;3.95;0.20;;;;;;;13.60;100.00;100009.41;5046028;28;20064;-52
2022/10/26 05:20:32;;;;;;;1.80;0.38;;;;;;;13.57;100.00;100013.34;5041532;28;20444;-53
2022/10/26 05:23:00;;;;;;;5.03;0.60;;;;;;;13.59;100.00;100008.59;5045861;28;20036;-57
2022/10/26 05:25:27;;;;;;;6.13;0.95;;;;;;;13.66;100.00;100016.53;5037482;28;20104;-53
2022/10/26 05:28:03;;;;;;;8.45;1.58;;;;;;;13.72;100.00;100021.78;5042854;28;20482;-57
2022/10/26 05:30:30;;;;;;;3.42;0.98;;;;;;;13.76;100.00;100024.81;5037774;28;20029;-54
2022/10/26 05:32:57;;;;;;;3.00;0.20;;;;;;;13.76;100.00;100027.50;5042792;28;20223;-57
2022/10/26 05:35:23;;;;;;;4.97;0.88;;;;;;;13.78;100.00;100013.94;5045382;28;20069;-56
2022/10/26 05:37:48;;;;;;;9.40;0.75;;;;;;;13.75;100.00;100016.00;5041643;28;20056;-57
2022/10/26 05:40:15;;;;;;;3.70;0.60;;;;;;;13.76;100.00;100016.84;5037308;28;20029;-56
2022/10/26 05:42:40;;;;;;;3.97;0.30;;;;;;;13.78;100.00;100016.59;5046633;28;20025;-57
2022/10/26 05:45:06;;;;;;;7.53;0.50;;;;;;;13.78;100.00;100014.72;5045932;28;20512;-54
2022/10/26 05:47:31;;;;;;;3.90;0.52;;;;;;;13.78;100.00;100013.94;5038341;28;20033;-57
2022/10/26 05:49:57;;;;;;;5.20;0.30;;;;;;;13.80;100.00;100022.53;5040678;28;20104;-56
2022/10/26 05:52:22;;;;;;;6.05;0.52;;;;;;;13.77;100.00;100017.63;5039762;28;20536;-52
2022/10/26 05:54:48;;;;;;;5.85;1.15;;;;;;;13.81;100.00;100019.63;5039994;28;20032;-51
2022/10/26 05:57:13;;;;;;;15.32;1.52;;;;;;;13.83;100.00;100016.72;5044018;28;20037;-50
2022/10/26 05:59:39;;;;;;;6.70;0.68;;;;;;;13.85;100.00;100012.00;5038116;28;20037;-50
2022/10/26 06:02:33;;;;;;;7.45;0.90;;;;;;;13.86;100.00;100013.63;5046080;28;20022;-51
2022/10/26 06:05:03;;;;;;;3.97;1.10;;;;;;;13.89;100.00;99994.53;5039412;28;20467;-55
2022/10/26 06:07:28;;;;;;;5.68;1.42;;;;;;;13.87;100.00;100004.59;5037593;28;20048;-52
2022/10/26 06:09:54;;;;;;;4.22;0.95;;;;;;;13.84;100.00;100010.38;5046312;28;20030;-58
2022/10/26 06:12:20;;;;;;;6.30;0.57;;;;;;;13.86;100.00;100009.13;5033615;28;20033;-58
2022/10/26 06:14:46;;;;;;;2.72;0.55;;;;;;;13.86;100.00;99995.81;5037352;28;20470;-55
2022/10/26 06:17:43;;;;;;;3.95;0.75;;;;;;;13.84;100.00;100005.06;5042719;28;20218;-50
2022/10/26 06:20:30;;;;;;;4.20;0.32;;;;;;;13.78;100.00;99995.28;5043454;28;20029;-56
2022/10/26 06:23:19;;;;;;;1.20;0.95;;;;;;;13.79;100.00;100008.38;5040298;28;20057;-52
2022/10/26 06:25:53;;;;;;;11.68;1.23;;;;;;;13.85;100.00;100004.81;5039229;28;20067;-57
2022/10/26 06:28:40;;;;;;;3.72;0.38;;;;;;;13.86;100.00;100011.78;5039216;28;20045;-57
2022/10/26 06:31:06;;;;;;;8.32;0.52;;;;;;;13.82;100.00;100015.13;5043156;28;20029;-54
2022/10/26 06:33:32;;;;;;;4.57;1.02;;;;;;;13.77;100.00;100017.63;5039591;28;20028;-57
2022/10/26 06:36:06;;;;;;;6.07;0.80;;;;;;;13.85;100.00;100026.13;5050087;28;20036;-56
2022/10/26 06:38:34;;;;;;;3.85;0.15;;;;;;;13.92;100.00;100034.06;5051412;28;20036;-57
2022/10/26 06:41:00;;;;;;;7.05;1.15;;;;;;;13.92;100.00;100032.22;5047011;28;20026;-57
2022/10/26 06:43:30;;;;;;;5.43;1.00;;;;;;;13.96;100.00;100037.88;5041853;28;20037;-56
2022/10/26 06:46:11;;;;;;;5.28;1.35;;;;;;;13.96;100.00;100045.88;5037092;28;20056;-57
2022/10/26 06:49:05;;;;;;;3.33;0.40;;;;;;;13.94;100.00;100032.81;5036816;28;20040;-58
2022/10/26 06:51:37;;;;;;;8.43;2.33;;;;;;;13.89;100.00;100042.50;5035158;28;20033;-58
2022/10/26 06:54:16;;;;;;;4.07;0.45;;;;;;;13.91;100.00;100053.72;5045689;28;20466;-56
2022/10/26 06:56:43;;;;;;;7.40;0.50;;;;;;;13.93;100.00;100043.66;5051777;28;20028;-52
2022/10/26 06:59:21;;;;;;;4.50;0.80;;;;;;;13.96;100.00;100038.72;5034794;28;20442;-48
2022/10/26 07:01:46;;;;;;;3.10;1.60;;;;;;;13.91;100.00;100032.41;5033644;28;20024;-53
2022/10/26 07:04:11;;;;;;;5.32;1.10;;;;;;;13.85;100.00;100035.97;5033940;28;20120;-52
2022/10/26 07:06:37;;;;;;;2.20;0.43;;;;;;;13.75;100.00;100037.31;5040374;28;20029;-55
2022/10/26 07:09:02;;;;;;;0.90;0.52;;;;;;;13.63;100.00;100039.09;5032468;28;20108;-51
2022/10/26 07:11:27;;;;;;;2.97;0.55;;;;;;;13.64;100.00;100045.25;5032116;28;20128;-52
2022/10/26 07:13:53;;;;;;;4.85;0.73;;;;;;;13.64;100.00;100042.59;5036655;28;20134;-57
2022/10/26 07:16:19;;;;;;;5.45;0.52;;;;;;;13.59;100.00;100042.44;5032474;28;20072;-51
2022/10/26 07:18:45;;;;;;;2.55;0.35;;;;;;;13.49;100.00;100053.59;5031323;28;20048;-56
2022/10/26 07:21:10;;;;;;;5.72;0.77;;;;;;;13.46;100.00;100054.03;5035830;28;20052;-53
2022/10/26 07:23:36;;;;;;;2.92;0.47;;;;;;;13.48;100.00;100049.31;5029965;28;20435;-55
2022/10/26 07:26:01;;;;;;;10.70;1.10;;;;;;;13.48;100.00;100047.44;5037252;28;20494;-53
2022/10/26 07:28:26;;;;;;;9.85;1.30;;;;;;;13.43;100.00;100054.47;5029596;28;20449;-57
2022/10/26 07:30:52;;;;;;;5.53;0.95;;;;;;;13.47;100.00;100066.31;5031502;28;20116;-51
2022/10/26 07:33:18;;;;;;;3.65;0.28;;;;;;;13.49;100.00;100074.91;5042627;28;20402;-56
2022/10/26 07:35:44;;;;;;;4.72;0.50;;;;;;;13.54;100.00;100080.38;5033044;28;20032;-56
2022/10/26 07:38:12;;;;;;;6.18;0.68;;;;;;;13.54;100.00;100080.38;5030245;28;20411;-53
2022/10/26 07:40:37;;;;;;;4.90;0.63;;;;;;;13.63;100.00;100086.22;5027796;28;20108;-54
2022/10/26 07:43:03;;;;;;;7.97;0.35;;;;;;;13.82;100.00;100098.53;5029139;28;20427;-56
2022/10/26 07:45:29;;;;;;;6.80;1.13;;;;;;;13.99;100.00;100096.06;5028916;28;20478;-56
2022/10/26 07:47:55;;;;;;;7.50;1.33;;;;;;;14.09;100.00;100088.38;5029654;28;20437;-55
2022/10/26 07:50:21;;;;;;;2.30;0.40;;;;;;;14.13;100.00;100097.56;5028661;28;20032;-57
2022/10/26 07:52:46;;;;;;;5.35;0.45;;;;;;;14.17;100.00;100093.44;5033705;28;20591;-56
2022/10/26 07:55:12;;;;;;;1.67;0.85;;;;;;;14.19;100.00;100082.50;5034618;28;20037;-52
2022/10/26 07:57:38;;;;;;;6.75;1.08;;;;;;;14.22;100.00;100094.59;5043804;28;20035;-56
2022/10/26 08:00:06;;;;;;;5.50;0.50;;;;;;;14.24;100.00;100089.84;5030991;28;20155;-56
2022/10/26 08:02:31;;;;;;;5.57;0.60;;;;;;;14.25;100.00;100088.78;5034798;28;20033;-52
2022/10/26 08:04:57;;;;;;;6.57;0.30;;;;;;;14.25;100.00;100089.63;5032547;28;20018;-52
2022/10/26 08:07:24;;;;;;;4.10;1.45;;;;;;;14.26;100.00;100090.44;5033864;28;20053;-50
2022/10/26 08:09:50;;;;;;;4.65;0.80;;;;;;;14.28;100.00;100105.19;5030411;28;20034;-56
2022/10/26 08:12:15;;;;;;;7.97;1.00;;;;;;;14.27;100.00;100113.41;5034512;28;20025;-55
2022/10/26 08:14:42;;;;;;;5.13;0.38;;;;;;;14.26;100.00;100111.78;5035572;28;20045;-55
2022/10/26 08:17:07;;;;;;;6.28;0.88;;;;;;;14.26;100.00;100117.13;5031673;28;20043;-54
2022/10/26 08:19:33;;;;;;;2.83;0.35;;;;;;;14.28;100.00;100121.19;5030283;28;20416;-51
2022/10/26 08:21:58;;;;;;;3.47;0.25;;;;;;;14.32;100.00;100126.88;5028617;28;20044;-51
2022/10/26 08:24:24;;;;;;;4.45;0.57;;;;;;;14.37;100.00;100129.69;5029885;28;20441;-56
2022/10/26 08:26:49;;;;;;;5.65;0.50;;;;;;;14.47;100.00;100123.81;5032444;28;20109;-54
2022/10/26 08:29:14;;;;;;;5.53;0.60;;;;;;;14.61;100.00;100131.47;5039737;28;20055;-54
2022/10/26 08:31:41;;;;;;;11.40;1.25;;;;;;;14.67;100.00;100123.59;5027858;28;20092;-53
2022/10/26 08:34:06;;;;;;;5.70;1.02;;;;;;;14.68;100.00;100130.53;5029763;28;20028;-53
2022/10/26 08:36:32;;;;;;;7.13;1.33;;;;;;;14.68;100.00;100111.88;5034364;28;20028;-56
2022/10/26 08:38:57;;;;;;;1.60;0.85;;;;;;;14.72;100.00;100097.03;5037601;28;20109;-54
2022/10/26 08:41:43;;;;;;;12.38;1.00;;;;;;;14.83;100.00;100104.25;5035004;28;20395;-58
2022/10/26 08:44:15;;;;;;;9.40;0.82;;;;;;;14.89;100.00;100106.00;5031208;28;20028;-53
2022/10/26 08:46:45;;;;;;;6.45;0.68;;;;;;;14.93;100.00;100115.19;5036394;28;20036;-56
2022/10/26 08:49:34;;;;;;;4.22;1.13;;;;;;;14.96;100.00;100124.59;5041043;28;20025;-57
2022/10/26 08:52:01;;;;;;;4.97;1.20;;;;;;;14.98;100.00;100120.66;5028457;28;20029;-54
2022/10/26 08:54:41;;;;;;;6.30;0.70;;;;;;;15.07;100.00;100137.16;5034024;28;20489;-51
2022/10/26 08:57:35;;;;;;;11.07;2.30;;;;;;;15.23;100.00;100114.31;5033296;28;20067;-52
2022/10/26 09:00:14;;;;;;;2.85;0.93;;;;;;;15.30;100.00;100115.03;5026852;28;20034;-57
2022/10/26 09:02:39;;;;;;;5.85;0.98;;;;;;;15.32;100.00;100125.47;5033336;28;20051;-51
2022/10/26 09:05:15;;;;;;;9.68;1.70;;;;;;;15.30;100.00;100128.38;5028859;28;20037;-55
2022/10/26 09:08:04;;;;;;;9.27;1.00;;;;;;;15.31;100.00;100124.69;5036079;28;20082;-51
2022/10/26 09:10:38;;;;;;;12.95;1.83;;;;;;;15.26;100.00;100128.03;5029323;28;20044;-53
2022/10/26 09:13:13;;;;;;;2.83;0.45;;;;;;;15.30;100.00;100123.03;5034818;28;20041;-54
2022/10/26 09:16:04;;;;;;;3.65;0.20;;;;;;;15.31;100.00;100119.34;5035425;28;20044;-55
2022/10/26 09:18:48;;;;;;;4.30;1.58;;;;;;;15.22;100.00;100136.72;5039892;28;20048;-56
2022/10/26 09:21:25;;;;;;;4.95;1.38;;;;;;;15.22;100.00;100148.22;5039531;28;20032;-58
2022/10/26 09:24:04;;;;;;;4.15;0.63;;;;;;;15.31;100.00;100151.38;5037514;28;20076;-56
2022/10/26 09:26:29;;;;;;;3.20;0.80;;;;;;;15.37;100.00;100145.13;5041699;28;20091;-57
2022/10/26 09:29:00;;;;;;;3.15;0.45;;;;;;;15.48;100.00;100122.94;5041843;28;20041;-56
2022/10/26 09:31:25;;;;;;;3.25;0.95;;;;;;;15.55;100.00;100146.88;5043430;28;20116;-54
2022/10/26 09:33:53;;;;;;;6.35;0.32;;;;;;;15.54;100.00;100149.75;5036690;28;20039;-53
2022/10/26 09:36:20;;;;;;;4.03;0.30;;;;;;;15.49;100.00;100155.81;5037027;28;20087;-53
2022/10/26 09:38:46;;;;;;;2.85;0.43;;;;;;;15.45;100.00;100160.78;5039636;28;20144;-51
2022/10/26 09:41:23;;;;;;;4.95;0.55;;;;;;;15.43;100.00;100168.22;5040986;28;20498;-54
2022/10/26 09:44:11;;;;;;;3.40;0.20;;;;;;;15.44;100.00;100182.41;5039896;28;20115;-56
2022/10/26 09:46:48;;;;;;;1.83;0.38;;;;;;;15.44;100.00;100179.75;5038229;28;20036;-55
2022/10/26 09:49:16;;;;;;;6.60;0.75;;;;;;;15.32;100.00;100190.41;5034070;28;20816;-57
2022/10/26 09:51:43;;;;;;;3.95;1.67;;;;;;;15.21;100.00;100201.88;5034502;28;20034;-54
2022/10/26 09:54:18;;;;;;;10.63;0.75;;;;;;;15.15;100.00;100206.25;5038393;28;20106;-49
2022/10/26 09:56:48;;;;;;;3.00;0.17;;;;;;;15.15;100.00;100202.78;5037842;28;20348;-57
2022/10/26 09:59:16;;;;;;;5.65;0.30;;;;;;;15.19;100.00;100211.97;5045146;28;20048;-56
2022/10/26 10:01:42;;;;;;;4.78;0.77;;;;;;;15.23;100.00;100213.97;5041317;28;20041;-58
2022/10/26 10:04:15;;;;;;;4.25;0.25;;;;;;;15.33;100.00;100218.72;5034601;28;20086;-55
2022/10/26 10:06:46;;;;;;;7.18;0.20;;;;;;;15.51;100.00;100223.19;5040706;28;20033;-55
2022/10/26 10:09:14;;;;;;;1.17;0.10;;;;;;;15.67;100.00;100227.06;5043709;28;20040;-56
2022/10/26 10:11:44;;;;;;;6.40;1.27;;;;;;;15.65;100.00;100229.97;5039013;28;20056;-53
2022/10/26 10:14:16;;;;;;;2.15;0.35;;;;;;;15.61;100.00;100214.59;5038544;28;20535;-55
2022/10/26 10:16:59;;;;;;;3.55;0.40;;;;;;;15.67;100.00;100229.75;5044955;28;20029;-52
2022/10/26 10:19:30;;;;;;;2.28;0.20;;;;;;;15.83;100.00;100217.56;5046161;28;20110;-51
2022/10/26 10:22:10;;;;;;;4.07;0.73;;;;;;;15.90;100.00;100232.47;5035159;28;20061;-58
2022/10/26 10:24:38;;;;;;;5.82;1.02;;;;;;;16.07;100.00;100229.88;5037355;28;20063;-56
2022/10/26 10:27:14;;;;;;;4.50;0.43;;;;;;;16.35;100.00;100247.09;5042752;28;20037;-58
2022/10/26 10:29:51;;;;;;;5.63;1.23;;;;;;;16.39;100.00;100242.06;5033487;28;20045;-57
2022/10/26 10:32:22;;;;;;;3.42;0.90;;;;;;;16.47;100.00;100234.50;5033322;28;20034;-58
2022/10/26 10:34:49;;;;;;;4.85;0.38;;;;;;;16.74;100.00;100245.47;5041482;28;20089;-55
2022/10/26 10:37:27;;;;;;;2.92;0.55;;;;;;;16.96;100.00;100253.72;5039001;28;20029;-56
2022/10/26 10:40:02;;;;;;;7.05;1.08;;;;;;;17.03;100.00;100247.41;5037596;28;20505;-53
2022/10/26 10:42:33;;;;;;;0.80;0.17;;;;;;;17.06;100.00;100239.69;5043200;28;20022;-54
2022/10/26 10:45:01;;;;;;;3.67;0.20;;;;;;;17.13;100.00;100251.06;5037519;28;20037;-58
2022/10/26 10:47:30;;;;;;;4.45;0.70;;;;;;;17.18;100.00;100256.53;5048198;28;20090;-58
2022/10/26 10:50:06;;;;;;;0.85;0.32;;;;;;;17.36;100.00;100258.19;5044594;28;20041;-52
2022/10/26 10:52:34;;;;;;;6.57;1.50;;;;;;;17.48;100.00;100255.47;5031262;28;20099;-48
2022/10/26 10:55:20;;;;;;;12.07;1.77;;;;;;;17.33;100.00;100239.13;5035544;28;20029;-59
2022/10/26 10:58:07;;;;;;;3.58;0.80;;;;;;;17.44;100.00;100257.00;5039410;28;20044;-57
2022/10/26 11:00:36;;;;;;;2.42;0.55;;;;;;;17.39;100.00;100238.94;5037808;28;20134;-49
2022/10/26 11:03:29;;;;;;;6.03;1.00;;;;;;;17.48;100.00;100239.38;5038307;28;20132;-58
2022/10/26 11:06:13;;;;;;;6.50;1.55;;;;;;;17.56;100.00;100241.66;5035558;28;20411;-58
2022/10/26 11:08:44;;;;;;;5.07;0.60;;;;;;;17.56;100.00;100246.22;5041833;28;20037;-51
2022/10/26 11:11:15;;;;;;;5.28;1.10;;;;;;;17.33;100.00;100252.50;5031500;28;20036;-55
2022/10/26 11:13:56;;;;;;;5.75;1.70;;;;;;;17.40;100.00;100261.22;5041412;28;20060;-56
2022/10/26 11:16:29;;;;;;;4.65;1.25;;;;;;;17.35;100.00;100250.41;5045270;28;20033;-56
2022/10/26 11:19:01;;;;;;;3.35;1.10;;;;;;;17.56;100.00;100265.78;5043280;28;20040;-53
2022/10/26 11:21:33;;;;;;;8.07;1.15;;;;;;;17.77;100.00;100239.31;5040682;28;20489;-52
2022/10/26 11:24:14;;;;;;;5.95;0.80;;;;;;;17.78;100.00;100254.31;5041674;28;20039;-59
2022/10/26 11:26:55;;;;;;;6.30;1.38;;;;;;;17.72;100.00;100250.75;5037224;28;20428;-55
2022/10/26 11:29:26;;;;;;;8.88;1.70;;;;;;;17.77;100.00;100250.03;5032181;28;20049;-49
2022/10/26 11:31:59;;;;;;;7.47;1.40;;;;;;;17.74;100.00;100269.28;5035013;28;20463;-47
2022/10/26 11:34:34;;;;;;;4.57;1.35;;;;;;;17.66;100.00;100273.19;5032863;28;20033;-54